createdAt,value
2017-08-04T00:02:20.890Z,5.90
2017-08-04T00:04:48.558Z,7.27
2017-08-04T00:07:18.894Z,5.80
2017-08-04T00:09:47.339Z,6.03
2017-08-04T00:12:16.390Z,6.43
2017-08-04T00:14:44.076Z,6.67
2017-08-04T00:17:11.715Z,6.20
2017-08-04T00:19:42.780Z,6.80
2017-08-04T00:22:15.879Z,6.07
2017-08-04T00:24:45.067Z,5.63
2017-08-04T00:27:13.361Z,6.70
2017-08-04T00:29:41.521Z,6.80
2017-08-04T00:32:09.470Z,6.70
2017-08-04T00:34:37.026Z,6.93
2017-08-04T00:37:04.564Z,6.33
2017-08-04T00:39:33.386Z,7.10
2017-08-04T00:42:01.633Z,6.80
2017-08-04T00:44:29.896Z,6.73
2017-08-04T00:46:57.760Z,5.93
2017-08-04T00:49:26.608Z,6.37
2017-08-04T00:51:54.636Z,6.40
2017-08-04T00:54:22.726Z,6.40
2017-08-04T00:56:51.256Z,5.33
2017-08-04T00:59:19.074Z,6.40
2017-08-04T01:01:47.067Z,6.00
2017-08-04T01:04:21.282Z,6.50
2017-08-04T01:06:49.009Z,6.87
2017-08-04T01:09:17.833Z,6.10
2017-08-04T01:11:50.565Z,7.07
2017-08-04T01:14:18.142Z,7.40
2017-08-04T01:16:48.915Z,7.20
2017-08-04T01:19:16.572Z,7.40
2017-08-04T01:21:44.151Z,7.03
2017-08-04T01:24:11.714Z,8.20
2017-08-04T01:26:40.622Z,8.23
2017-08-04T01:29:10.552Z,8.43
2017-08-04T01:31:38.280Z,8.90
2017-08-04T01:34:07.664Z,7.97
2017-08-04T01:36:35.392Z,8.73
2017-08-04T01:39:03.029Z,7.97
2017-08-04T01:41:30.910Z,7.60
2017-08-04T01:43:58.679Z,6.67
2017-08-04T01:46:27.315Z,7.43
2017-08-04T01:48:58.062Z,6.93
2017-08-04T01:51:25.623Z,7.63
2017-08-04T01:53:53.184Z,8.83
2017-08-04T01:56:21.067Z,7.77
2017-08-04T01:58:48.648Z,7.77
2017-08-04T02:01:16.201Z,7.10
2017-08-04T02:03:43.931Z,8.20
2017-08-04T02:06:11.527Z,7.73
2017-08-04T02:08:39.145Z,8.23
2017-08-04T02:11:06.599Z,7.00
2017-08-04T02:13:34.167Z,9.90
2017-08-04T02:16:01.729Z,7.40
2017-08-04T02:18:29.416Z,8.47
2017-08-04T02:20:57.066Z,8.77
2017-08-04T02:23:24.618Z,7.30
2017-08-04T02:25:52.240Z,8.20
2017-08-04T02:28:20.001Z,8.97
2017-08-04T02:30:47.714Z,8.57
2017-08-04T02:33:15.655Z,8.60
2017-08-04T02:35:43.473Z,8.77
2017-08-04T02:38:11.179Z,9.13
2017-08-04T02:40:38.825Z,8.03
2017-08-04T02:43:06.468Z,9.20
2017-08-04T02:45:35.343Z,8.27
2017-08-04T02:48:03.058Z,8.30
2017-08-04T02:50:30.817Z,8.93
2017-08-04T02:52:58.430Z,8.13
2017-08-04T02:55:26.071Z,8.13
2017-08-04T02:57:53.807Z,8.67
2017-08-04T03:00:23.942Z,9.43
2017-08-04T03:02:52.004Z,9.40
2017-08-04T03:05:19.774Z,11.80
2017-08-04T03:07:47.389Z,11.43
2017-08-04T03:10:15.009Z,8.97
2017-08-04T03:12:42.553Z,9.67
2017-08-04T03:15:09.901Z,9.33
2017-08-04T03:17:37.668Z,9.40
2017-08-04T03:20:05.428Z,9.20
2017-08-04T03:22:32.991Z,7.60
2017-08-04T03:25:00.849Z,7.80
2017-08-04T03:27:28.645Z,8.50
2017-08-04T03:29:56.489Z,8.63
2017-08-04T03:32:24.154Z,7.93
2017-08-04T03:34:51.926Z,10.53
2017-08-04T03:37:20.781Z,9.70
2017-08-04T03:39:48.384Z,9.63
2017-08-04T03:42:17.866Z,10.30
2017-08-04T03:44:45.813Z,10.10
2017-08-04T03:47:13.811Z,10.53
2017-08-04T03:49:41.471Z,11.07
2017-08-04T03:52:12.751Z,12.13
2017-08-04T03:54:40.445Z,11.60
2017-08-04T03:57:08.008Z,11.20
2017-08-04T03:59:36.292Z,11.33
2017-08-04T04:02:03.904Z,12.60
2017-08-04T04:04:31.553Z,9.80
2017-08-04T04:07:02.110Z,9.53
2017-08-04T04:09:31.431Z,9.80
2017-08-04T04:12:00.106Z,10.80
2017-08-04T04:14:31.073Z,12.20
2017-08-04T04:16:58.638Z,11.27
2017-08-04T04:19:26.248Z,12.73
2017-08-04T04:21:54.408Z,10.37
2017-08-04T04:24:24.119Z,11.47
2017-08-04T04:26:52.085Z,10.10
2017-08-04T04:29:21.127Z,10.97
2017-08-04T04:31:48.755Z,10.80
2017-08-04T04:34:17.368Z,10.67
2017-08-04T04:36:45.118Z,10.27
2017-08-04T04:39:13.315Z,11.03
2017-08-04T04:41:44.589Z,10.80
2017-08-04T04:44:12.866Z,12.00
2017-08-04T04:46:40.607Z,9.57
2017-08-04T04:49:08.559Z,10.90
2017-08-04T04:51:36.168Z,9.93
2017-08-04T04:54:03.839Z,10.17
2017-08-04T04:56:31.496Z,9.13
2017-08-04T04:58:59.236Z,9.37
2017-08-04T05:01:27.614Z,9.83
2017-08-04T05:03:55.643Z,9.37
2017-08-04T05:06:23.561Z,9.57
2017-08-04T05:08:52.683Z,8.77
2017-08-04T05:11:24.045Z,9.47
2017-08-04T05:13:51.764Z,10.00
2017-08-04T05:16:19.807Z,9.53
2017-08-04T05:18:47.514Z,10.10
2017-08-04T05:21:15.364Z,8.50
2017-08-04T05:23:42.903Z,8.53
2017-08-04T05:26:10.663Z,8.73
2017-08-04T05:28:38.646Z,8.97
2017-08-04T05:31:07.470Z,9.20
2017-08-04T05:33:36.109Z,8.43
2017-08-04T05:36:03.810Z,8.23
2017-08-04T05:38:31.614Z,7.57
2017-08-04T05:40:59.204Z,8.20
2017-08-04T05:43:26.955Z,7.77
2017-08-04T05:45:54.886Z,7.97
2017-08-04T05:48:22.648Z,9.50
2017-08-04T05:50:50.568Z,7.50
2017-08-04T05:53:19.169Z,8.07
2017-08-04T05:55:46.789Z,7.90
2017-08-04T05:58:14.426Z,8.90
2017-08-04T06:00:42.133Z,8.37
2017-08-04T06:03:09.858Z,8.27
2017-08-04T06:05:37.702Z,9.13
2017-08-04T06:10:54.803Z,7.03
2017-08-04T06:13:22.566Z,6.57
2017-08-04T06:15:50.087Z,6.40
2017-08-04T06:18:17.743Z,6.47
2017-08-04T06:20:45.250Z,7.57
2017-08-04T06:23:12.751Z,6.50
2017-08-04T06:25:40.339Z,5.80
2017-08-04T06:28:07.844Z,6.20
2017-08-04T06:30:35.358Z,6.03
2017-08-04T06:33:03.183Z,5.87
2017-08-04T06:35:30.679Z,6.10
2017-08-04T06:37:58.399Z,5.53
2017-08-04T06:40:25.957Z,5.77
2017-08-04T06:42:53.484Z,5.60
2017-08-04T06:45:20.991Z,4.57
2017-08-04T06:47:48.792Z,4.97
2017-08-04T06:50:28.096Z,4.73
2017-08-04T06:53:07.570Z,5.30
2017-08-04T06:55:55.735Z,4.80
2017-08-04T06:58:23.722Z,4.53
2017-08-04T07:00:51.235Z,4.30
2017-08-04T07:03:18.732Z,4.40
2017-08-04T07:05:46.343Z,4.37
2017-08-04T07:08:13.871Z,3.83
2017-08-04T07:10:41.384Z,3.87
2017-08-04T07:13:09.183Z,3.87
2017-08-04T07:15:36.683Z,4.23
2017-08-04T07:18:04.330Z,3.40
2017-08-04T07:20:31.940Z,3.50
2017-08-04T07:22:59.442Z,3.73
2017-08-04T07:25:26.962Z,3.50
2017-08-04T07:27:54.515Z,3.20
2017-08-04T07:30:22.088Z,3.37
2017-08-04T07:32:49.591Z,3.13
2017-08-04T07:35:17.427Z,3.50
2017-08-04T07:37:44.955Z,3.50
2017-08-04T07:40:12.463Z,3.57
2017-08-04T07:42:40.004Z,3.37
2017-08-04T07:45:07.503Z,3.33
2017-08-04T07:47:35.135Z,3.60
2017-08-04T07:50:03.079Z,2.97
2017-08-04T07:52:30.579Z,3.27
2017-08-04T07:54:58.074Z,3.10
2017-08-04T07:57:25.615Z,2.90
2017-08-04T07:59:53.738Z,3.60
2017-08-04T08:02:21.230Z,2.70
2017-08-04T08:04:48.797Z,2.87
2017-08-04T08:07:16.446Z,3.53
2017-08-04T08:09:43.951Z,4.20
2017-08-04T08:12:12.018Z,3.40
2017-08-04T08:14:39.616Z,2.63
2017-08-04T08:17:07.123Z,3.93
2017-08-04T08:19:34.647Z,3.00
2017-08-04T08:22:02.150Z,2.77
2017-08-04T08:24:29.674Z,2.43
2017-08-04T08:26:57.200Z,2.47
2017-08-04T08:29:24.724Z,2.03
2017-08-04T08:31:52.626Z,2.67
2017-08-04T08:34:20.123Z,2.33
2017-08-04T08:36:47.639Z,2.70
2017-08-04T08:39:15.187Z,2.20
2017-08-04T08:41:42.794Z,2.50
2017-08-04T08:44:10.421Z,2.17
2017-08-04T08:46:38.006Z,2.23
2017-08-04T08:49:05.502Z,2.10
2017-08-04T08:51:33.469Z,2.03
2017-08-04T08:54:01.393Z,2.10
2017-08-04T08:56:28.907Z,2.50
2017-08-04T08:58:56.402Z,2.00
2017-08-04T09:01:23.946Z,1.90
2017-08-04T09:03:51.442Z,1.93
2017-08-04T09:06:18.937Z,2.30
2017-08-04T09:08:46.479Z,1.77
2017-08-04T09:11:14.034Z,2.67
2017-08-04T09:13:41.542Z,2.20
2017-08-04T09:16:09.090Z,2.03
2017-08-04T09:18:36.599Z,2.27
2017-08-04T09:21:04.118Z,1.70
2017-08-04T09:23:31.711Z,1.97
2017-08-04T09:25:59.219Z,2.40
2017-08-04T09:28:26.714Z,2.03
2017-08-04T09:30:54.270Z,2.00
2017-08-04T09:33:21.762Z,1.80
2017-08-04T09:35:49.259Z,1.90
2017-08-04T09:38:16.858Z,1.97
2017-08-04T09:40:45.066Z,1.87
2017-08-04T09:43:12.594Z,2.00
2017-08-04T09:45:40.482Z,2.00
2017-08-04T09:48:07.984Z,1.80
2017-08-04T09:50:35.494Z,2.50
2017-08-04T09:53:03.296Z,2.00
2017-08-04T09:55:30.794Z,1.80
2017-08-04T09:57:58.298Z,1.80
2017-08-04T10:00:25.851Z,1.80
2017-08-04T10:02:53.403Z,2.07
2017-08-04T10:05:20.944Z,2.10
2017-08-04T10:07:48.746Z,2.10
2017-08-04T10:10:16.334Z,2.30
2017-08-04T10:12:43.835Z,1.83
2017-08-04T10:15:11.387Z,2.20
2017-08-04T10:17:38.892Z,2.00
2017-08-04T10:20:06.690Z,1.87
2017-08-04T10:22:34.303Z,1.93
2017-08-04T10:25:01.838Z,2.50
2017-08-04T10:27:29.398Z,2.03
2017-08-04T10:29:56.896Z,2.00
2017-08-04T10:32:24.398Z,1.70
2017-08-04T10:34:52.175Z,1.90
2017-08-04T10:37:19.670Z,2.00
2017-08-04T10:39:47.167Z,1.77
2017-08-04T10:42:14.713Z,2.00
2017-08-04T10:44:42.219Z,1.80
2017-08-04T10:47:09.802Z,2.00
2017-08-04T10:49:37.350Z,2.13
2017-08-04T10:52:04.850Z,2.20
2017-08-04T10:54:32.355Z,2.00
2017-08-04T10:57:00.229Z,2.13
2017-08-04T10:59:27.731Z,2.30
2017-08-04T11:01:55.237Z,2.17
2017-08-04T11:04:23.035Z,2.30
2017-08-04T11:06:50.680Z,2.00
2017-08-04T11:09:18.196Z,2.20
2017-08-04T11:11:45.753Z,2.33
2017-08-04T11:14:13.242Z,1.83
2017-08-04T11:16:40.736Z,2.10
2017-08-04T11:19:08.274Z,2.03
2017-08-04T11:21:35.798Z,1.87
2017-08-04T11:24:03.359Z,2.10
2017-08-04T11:26:30.881Z,2.53
2017-08-04T11:28:58.382Z,2.10
2017-08-04T11:31:25.911Z,2.30
2017-08-04T11:33:53.499Z,2.60
2017-08-04T11:36:20.987Z,2.30
2017-08-04T11:38:48.518Z,1.80
2017-08-04T11:41:16.372Z,2.10
2017-08-04T11:43:43.866Z,2.27
2017-08-04T11:46:11.367Z,2.13
2017-08-04T11:48:39.160Z,2.37
2017-08-04T11:51:06.472Z,2.10
2017-08-04T11:53:33.985Z,2.17
2017-08-04T11:56:02.203Z,1.70
2017-08-04T11:58:29.734Z,1.97
2017-08-04T12:00:57.306Z,1.87
2017-08-04T12:03:24.838Z,1.93
2017-08-04T12:05:52.331Z,2.10
2017-08-04T12:08:19.896Z,1.97
2017-08-04T12:10:47.418Z,2.03
2017-08-04T12:13:14.938Z,2.10
2017-08-04T12:15:42.494Z,2.10
2017-08-04T12:18:09.981Z,2.13
2017-08-04T12:20:37.483Z,2.07
2017-08-04T12:23:05.115Z,2.83
2017-08-04T12:25:32.635Z,1.80
2017-08-04T12:28:00.126Z,2.30
2017-08-04T12:30:27.643Z,2.20
2017-08-04T12:32:55.138Z,1.63
2017-08-04T12:35:22.690Z,2.30
2017-08-04T12:37:50.183Z,1.90
2017-08-04T12:40:17.739Z,2.30
2017-08-04T12:42:45.278Z,1.90
2017-08-04T12:45:12.803Z,2.50
2017-08-04T12:47:40.317Z,2.43
2017-08-04T12:50:07.835Z,2.40
2017-08-04T12:52:35.098Z,2.13
2017-08-04T12:55:03.064Z,2.20
2017-08-04T12:57:30.667Z,2.47
2017-08-04T12:59:58.207Z,1.77
2017-08-04T13:02:25.758Z,2.10
2017-08-04T13:04:53.255Z,2.60
2017-08-04T13:07:20.762Z,2.37
2017-08-04T13:09:48.470Z,2.00
2017-08-04T13:12:15.968Z,2.40
2017-08-04T13:14:43.475Z,1.70
2017-08-04T13:17:11.021Z,2.37
2017-08-04T13:19:38.518Z,2.50
2017-08-04T13:22:06.011Z,2.10
2017-08-04T13:24:33.550Z,2.93
2017-08-04T13:27:01.083Z,2.53
2017-08-04T13:29:28.586Z,2.50
2017-08-04T13:31:56.146Z,2.80
2017-08-04T13:34:23.655Z,2.90
2017-08-04T13:36:51.154Z,2.20
2017-08-04T13:39:18.792Z,2.20
2017-08-04T13:41:46.286Z,2.40
2017-08-04T13:44:13.786Z,2.10
2017-08-04T13:46:41.338Z,2.30
2017-08-04T13:49:08.839Z,3.07
2017-08-04T13:51:36.335Z,2.47
2017-08-04T13:54:04.939Z,2.23
2017-08-04T13:56:32.439Z,2.33
2017-08-04T13:59:00.049Z,2.40
2017-08-04T14:01:27.831Z,2.50
2017-08-04T14:03:55.402Z,2.63
2017-08-04T14:06:22.928Z,2.20
2017-08-04T14:08:50.567Z,2.30
2017-08-04T14:11:18.167Z,2.20
2017-08-04T14:13:45.671Z,2.80
2017-08-04T14:16:13.539Z,2.90
2017-08-04T14:18:41.054Z,2.90
2017-08-04T14:21:08.557Z,3.60
2017-08-04T14:23:36.140Z,3.77
2017-08-04T14:26:03.740Z,3.40
2017-08-04T14:28:31.239Z,3.50
2017-08-04T14:30:59.083Z,3.20
2017-08-04T14:33:26.674Z,3.27
2017-08-04T14:35:54.605Z,3.03
2017-08-04T14:38:22.162Z,3.33
2017-08-04T14:40:49.709Z,3.47
2017-08-04T14:43:17.254Z,3.40
2017-08-04T14:45:44.797Z,2.60
2017-08-04T14:48:12.303Z,3.20
2017-08-04T14:50:39.945Z,2.47
2017-08-04T14:53:07.463Z,2.70
2017-08-04T14:55:35.032Z,2.83
2017-08-04T14:58:03.146Z,2.87
2017-08-04T15:00:30.696Z,3.37
2017-08-04T15:02:58.594Z,2.77
2017-08-04T15:05:26.107Z,3.50
2017-08-04T15:07:53.608Z,2.77
2017-08-04T15:10:21.256Z,2.90
2017-08-04T15:12:49.602Z,2.87
2017-08-04T15:15:17.143Z,4.03
2017-08-04T15:17:44.965Z,3.70
2017-08-04T15:20:12.465Z,3.93
2017-08-04T15:22:40.098Z,3.30
2017-08-04T15:25:08.451Z,3.77
2017-08-04T15:27:36.026Z,3.47
2017-08-04T15:30:04.246Z,3.13
2017-08-04T15:32:31.830Z,3.20
2017-08-04T15:34:59.338Z,3.10
2017-08-04T15:37:26.955Z,3.87
2017-08-04T15:39:54.456Z,3.60
2017-08-04T15:42:22.452Z,3.90
2017-08-04T15:44:50.504Z,3.90
2017-08-04T15:47:18.087Z,3.13
2017-08-04T15:49:45.912Z,3.40
2017-08-04T15:52:13.475Z,3.20
2017-08-04T15:54:41.124Z,3.50
2017-08-04T15:57:08.907Z,3.40
2017-08-04T15:59:36.438Z,3.17
2017-08-04T16:02:04.011Z,3.30
2017-08-04T16:04:31.587Z,3.90
2017-08-04T16:06:59.135Z,3.90
2017-08-04T16:09:26.631Z,3.93
2017-08-04T16:11:54.179Z,3.90
2017-08-04T16:14:22.450Z,3.90
2017-08-04T16:16:49.974Z,2.73
2017-08-04T16:19:17.563Z,2.80
2017-08-04T16:21:45.099Z,2.90
2017-08-04T16:24:12.595Z,2.80
2017-08-04T16:26:40.853Z,2.93
2017-08-04T16:29:08.347Z,2.57
2017-08-04T16:31:35.939Z,2.87
2017-08-04T16:34:03.828Z,2.63
2017-08-04T16:36:31.352Z,2.97
2017-08-04T16:38:58.878Z,3.27
2017-08-04T16:41:26.414Z,2.90
2017-08-04T16:43:53.919Z,2.77
2017-08-04T16:46:21.493Z,2.77
2017-08-04T16:48:49.119Z,3.17
2017-08-04T16:51:16.689Z,2.70
2017-08-04T16:53:44.195Z,2.90
2017-08-04T16:56:11.796Z,2.50
2017-08-04T16:58:39.336Z,3.33
2017-08-04T17:01:06.834Z,2.27
2017-08-04T17:03:34.550Z,2.60
2017-08-04T17:06:02.062Z,3.17
2017-08-04T17:08:29.590Z,2.53
2017-08-04T17:10:57.182Z,2.67
2017-08-04T17:13:24.688Z,2.43
2017-08-04T17:15:52.231Z,2.57
2017-08-04T17:18:20.088Z,2.30
2017-08-04T17:20:47.610Z,2.03
2017-08-04T17:23:15.107Z,2.93
2017-08-04T17:25:42.667Z,2.60
2017-08-04T17:28:10.167Z,2.80
2017-08-04T17:30:37.659Z,2.60
2017-08-04T17:33:05.255Z,2.70
2017-08-04T17:35:32.751Z,2.60
2017-08-04T17:38:00.246Z,2.43
2017-08-04T17:40:27.790Z,3.20
2017-08-04T17:42:55.319Z,2.77
2017-08-04T17:45:22.815Z,3.20
2017-08-04T17:47:50.507Z,3.03
2017-08-04T17:50:18.031Z,3.40
2017-08-04T17:52:45.535Z,2.50
2017-08-04T17:55:13.103Z,2.80
2017-08-04T17:57:40.671Z,2.30
2017-08-04T18:00:08.590Z,2.73
2017-08-04T18:02:57.116Z,2.67
2017-08-04T18:05:24.792Z,2.50
2017-08-04T18:07:52.308Z,2.53
2017-08-04T18:10:20.543Z,2.40
2017-08-04T18:12:48.057Z,3.03
2017-08-04T18:15:17.055Z,2.97
2017-08-04T18:17:44.655Z,2.30
2017-08-04T18:20:12.156Z,2.50
2017-08-04T18:22:39.670Z,3.00
2017-08-04T18:25:07.577Z,3.00
2017-08-04T18:27:35.138Z,2.40
2017-08-04T18:30:02.682Z,3.00
2017-08-04T18:32:30.235Z,3.10
2017-08-04T18:34:57.753Z,2.83
2017-08-04T18:37:25.299Z,2.97
2017-08-04T18:39:53.291Z,3.57
2017-08-04T18:42:21.188Z,2.87
2017-08-04T18:44:48.756Z,3.40
2017-08-04T18:47:16.327Z,3.43
2017-08-04T18:49:43.910Z,3.50
2017-08-04T18:52:11.506Z,4.10
2017-08-04T18:54:39.013Z,3.70
2017-08-04T18:57:06.698Z,3.10
2017-08-04T18:59:34.213Z,2.93
2017-08-04T19:02:01.869Z,3.90
2017-08-04T19:04:29.443Z,3.87
2017-08-04T19:06:56.951Z,3.70
2017-08-04T19:09:24.450Z,3.27
2017-08-04T19:11:53.228Z,4.70
2017-08-04T19:14:20.825Z,5.30
2017-08-04T19:16:48.861Z,5.67
2017-08-04T19:19:16.422Z,4.20
2017-08-04T19:21:43.966Z,4.93
2017-08-04T19:24:12.583Z,5.00
2017-08-04T19:26:40.427Z,5.53
2017-08-04T19:29:08.822Z,6.20
2017-08-04T19:31:36.533Z,4.90
2017-08-04T19:34:04.390Z,5.10
2017-08-04T19:36:32.074Z,5.10
2017-08-04T19:38:59.876Z,5.27
2017-08-04T19:41:27.576Z,5.87
2017-08-04T19:43:55.188Z,5.33
2017-08-04T19:46:22.913Z,6.70
2017-08-04T19:48:50.430Z,4.03
2017-08-04T19:51:17.950Z,4.70
2017-08-04T19:53:45.556Z,4.83
2017-08-04T19:56:13.446Z,5.27
2017-08-04T19:58:40.951Z,4.80
2017-08-04T20:01:08.834Z,5.63
2017-08-04T20:03:36.387Z,5.20
2017-08-04T20:06:03.909Z,4.73
2017-08-04T20:08:31.998Z,5.60
2017-08-04T20:10:59.707Z,5.90
2017-08-04T20:13:27.258Z,4.97
2017-08-04T20:15:55.676Z,5.00
2017-08-04T20:18:23.664Z,5.40
2017-08-04T20:20:51.155Z,5.40
2017-08-04T20:23:18.464Z,6.07
2017-08-04T20:25:46.293Z,4.70
2017-08-04T20:28:13.791Z,5.47
2017-08-04T20:30:42.272Z,5.30
2017-08-04T20:33:09.662Z,5.47
2017-08-04T20:35:49.204Z,5.90
2017-08-04T20:38:16.739Z,5.93
2017-08-04T20:40:44.271Z,6.70
2017-08-04T20:43:12.495Z,6.47
2017-08-04T20:45:40.228Z,5.70
2017-08-04T20:48:07.727Z,5.40
2017-08-04T20:50:35.279Z,6.27
2017-08-04T20:53:02.783Z,6.37
2017-08-04T20:55:30.384Z,5.87
2017-08-04T20:57:58.166Z,6.10
2017-08-04T21:00:26.132Z,5.60
2017-08-04T21:02:53.670Z,5.77
2017-08-04T21:05:21.238Z,5.50
2017-08-04T21:07:48.734Z,6.30
2017-08-04T21:10:16.243Z,6.07
2017-08-04T21:12:44.327Z,6.67
2017-08-04T21:15:11.840Z,6.50
2017-08-04T21:17:40.066Z,6.37
2017-08-04T21:20:07.630Z,5.40
2017-08-04T21:22:35.130Z,5.60
2017-08-04T21:25:03.175Z,5.87
2017-08-04T21:27:30.962Z,6.53
2017-08-04T21:29:58.913Z,6.70
2017-08-04T21:32:26.482Z,6.50
2017-08-04T21:34:54.456Z,6.00
2017-08-04T21:37:22.062Z,5.70
2017-08-04T21:39:49.736Z,5.60
2017-08-04T21:42:17.410Z,5.50
2017-08-04T21:44:45.085Z,5.33
2017-08-04T21:47:12.937Z,5.83
2017-08-04T21:49:41.351Z,6.07
2017-08-04T21:52:10.052Z,5.83
2017-08-04T21:54:38.046Z,4.97
2017-08-04T21:57:05.883Z,5.80
2017-08-04T21:59:34.353Z,5.27
2017-08-04T22:02:02.142Z,5.90
2017-08-04T22:04:30.202Z,7.70
2017-08-04T22:06:57.790Z,5.77
2017-08-04T22:09:25.296Z,5.43
2017-08-04T22:11:52.830Z,5.03
2017-08-04T22:14:20.367Z,5.73
2017-08-04T22:16:47.871Z,5.73
2017-08-04T22:19:15.819Z,6.57
2017-08-04T22:21:43.687Z,5.60
2017-08-04T22:24:11.242Z,6.50
2017-08-04T22:26:38.791Z,6.30
2017-08-04T22:29:06.290Z,6.40
2017-08-04T22:31:33.798Z,5.93
2017-08-04T22:34:01.343Z,5.87
2017-08-04T22:36:28.957Z,5.67
2017-08-04T22:38:56.457Z,4.90
2017-08-04T22:41:24.011Z,5.60
2017-08-04T22:43:51.503Z,5.63
2017-08-04T22:46:19.002Z,6.33
2017-08-04T22:48:46.531Z,7.10
2017-08-04T22:51:14.071Z,5.93
2017-08-04T22:53:41.632Z,6.23
2017-08-04T22:56:09.538Z,5.90
2017-08-04T22:58:37.040Z,6.63
2017-08-04T23:01:04.539Z,6.27
2017-08-04T23:03:32.070Z,6.80
2017-08-04T23:05:59.566Z,6.07
2017-08-04T23:08:27.107Z,5.63
2017-08-04T23:10:54.968Z,6.80
2017-08-04T23:13:22.470Z,5.77
2017-08-04T23:15:49.969Z,6.50
2017-08-04T23:18:17.791Z,5.70
2017-08-04T23:20:45.311Z,6.13
2017-08-04T23:23:12.814Z,6.20
2017-08-04T23:25:40.377Z,5.23
2017-08-04T23:28:07.911Z,5.80
2017-08-04T23:30:35.482Z,5.90
2017-08-04T23:33:03.371Z,6.27
2017-08-04T23:35:30.870Z,5.53
2017-08-04T23:37:58.371Z,7.70
2017-08-04T23:40:25.917Z,6.17
2017-08-04T23:42:53.416Z,6.93
2017-08-04T23:45:20.993Z,6.60
2017-08-04T23:47:48.925Z,5.73
2017-08-04T23:50:16.439Z,5.60
2017-08-04T23:52:43.939Z,6.23
2017-08-04T23:55:11.499Z,5.90
2017-08-04T23:57:38.990Z,6.50
